0°C Temp
0°C Dewpoint
100% Humidity
Temperature
8 KM/H
5 MPH
4 KTS
360°
Due North

Wind Speed
Clear
Conditions
Pressure 1021.92 (hPa) - 30.18 (in)
Visibility 6.2 (mi) - 10.0 (km)

Current Conditions
LSZA
Location Lugano 50 (km)
Metar :LSZA 080850Z 36004KT CAVOK 00/00 Q1022 NOSIG
Sun 8th December 09:50 am

Airport
  Metar Aviation API Data Provided by https://www.checkwx.com/ PHP scripts by weather34.com ©2019